Helas — C4AZ2 — position and weather

sailwx.info

Track history (hours):
 
Tides and Currents Weather Stations Pressure Air Temp Water Temp Dewpoint Dewpoint Depression Visibility Wind Speed Wind Dir Waves Ship Positions

Helas

Last reported at 2015-May-04 11:32 UTC. Time now 2015-May-04 15:04 UTC.
Position N 50°00' W 002°45'.

Length 89 m; draft 5.6 m.

Type: Cargo ship. MMSI: 210031000.

Date/timePositionNaut miles runAvg speedWind from/ knotsBaromVisibWave heightAir tempDewpointWater temp
2015-May-04 11:32N 50°00' W 002°45'10 9.3
2015-May-04 10:30N 50°03' W 002°30'108 8.2
2015-May-03 21:20N 50°34' E 000°13'5 6.4
2015-May-03 20:33N 50°36' E 000°20'6 6.5
2015-May-03 19:33N 50°38' E 000°30'8 7.7
2015-May-03 18:33N 50°41' E 000°40'9 8.9
2015-May-03 17:33N 50°46' E 000°52'12 9.3
2015-May-03 16:16N 50°53' E 001°07'6 8.8
2015-May-03 15:33N 50°57' E 001°15'8 7.8
2015-May-03 14:33N 51°03' E 001°24'7 6.5
2015-May-03 13:33N 51°07' E 001°32'5 5.2
2015-May-03 12:34N 51°10' E 001°38'6 5.6
2015-May-03 11:33N 51°14' E 001°45'7 6.6
2015-May-03 10:33N 51°20' E 001°50'9 8.9
2015-May-03 09:33N 51°27' E 001°57'1110.6
2015-May-03 08:33N 51°35' E 002°09'61 9.5
2015-May-03 02:10N 52°18' E 003°18'5 7.8
2015-May-03 01:33N 52°21' E 003°24'8 8.0
2015-May-03 00:33N 52°25' E 003°35'9 8.9
2015-May-02 23:33N 52°30' E 003°48'10 9.3
2015-May-02 22:31N 52°31' E 004°04'10 9.9
2015-May-02 21:33N 52°30' E 004°19'9 9.4
2015-May-02 20:33N 52°28' E 004°34'1 1.3
2015-May-02 19:33N 52°28' E 004°36'0 0.0
2015-May-02 18:30N 52°28' E 004°36'0 0.0
2015-May-02 17:33N 52°28' E 004°36'0 0.0
2015-May-02 16:33N 52°28' E 004°36'0 0.0
2015-May-02 15:27N 52°28' E 004°36'0 0.0
2015-May-02 14:27N 52°28' E 004°36'0 0.0
2015-May-02 13:27N 52°28' E 004°36'0 0.0
2015-May-02 12:33N 52°28' E 004°36'0 0.0
2015-May-02 11:33N 52°28' E 004°36'0 0.0
2015-May-02 10:33N 52°28' E 004°36'0 0.0
2015-May-02 09:30N 52°28' E 004°36'0 0.0
2015-May-02 08:33N 52°28' E 004°36'0 0.0
2015-May-02 07:33N 52°28' E 004°36'0 0.0
2015-May-02 06:30N 52°28' E 004°36'0 0.0
2015-May-02 05:33N 52°28' E 004°36'0 0.0
2015-May-02 04:30N 52°28' E 004°36'0 0.0
2015-May-02 03:33N 52°28' E 004°36'0 0.0
2015-May-02 02:33N 52°28' E 004°36'0 0.0
2015-May-02 01:33N 52°28' E 004°36'0 0.0
2015-May-02 00:33N 52°28' E 004°36'0 0.0
2015-May-01 23:32N 52°28' E 004°36'0 0.0
2015-May-01 22:32N 52°28' E 004°36'0 0.0
2015-May-01 21:32N 52°28' E 004°36'0 0.0
2015-May-01 20:32N 52°28' E 004°36'0 0.0
2015-May-01 19:32N 52°28' E 004°36'0 0.0
2015-May-01 18:32N 52°28' E 004°36'0 0.0
2015-May-01 17:29N 52°28' E 004°36'0 0.0
2015-May-01 16:32N 52°28' E 004°36'0 0.0
2015-May-01 15:32N 52°28' E 004°36'0 0.0
2015-May-01 14:29N 52°28' E 004°36'0 0.0
2015-May-01 13:29N 52°28' E 004°36'0 0.0
2015-May-01 12:32N 52°28' E 004°36'0 0.0
2015-May-01 11:32N 52°28' E 004°36'0 0.0
2015-May-01 10:32N 52°28' E 004°36'0 0.0
2015-May-01 09:32N 52°28' E 004°36'0 0.0
2015-May-01 08:32N 52°28' E 004°36'0 0.0
2015-May-01 07:32N 52°28' E 004°36'0 0.0
2015-May-01 06:32N 52°28' E 004°36'0 0.0
2015-May-01 05:32N 52°28' E 004°36'0 0.0
2015-May-01 04:32N 52°28' E 004°36'0 0.0
2015-May-01 03:27N 52°28' E 004°36'0 0.0
2015-May-01 02:32N 52°28' E 004°36'0 0.0
2015-May-01 01:33N 52°28' E 004°36'0 0.0
2015-May-01 00:32N 52°28' E 004°36'0 0.0
2015-Apr-30 23:20N 52°28' E 004°36'0 0.0
2015-Apr-30 22:21N 52°28' E 004°36'0 0.0
2015-Apr-30 21:32N 52°28' E 004°36'0 0.0
2015-Apr-30 20:28N 52°28' E 004°36'0 0.0
2015-Apr-30 19:18N 52°28' E 004°36'0 0.0
2015-Apr-30 18:33N 52°28' E 004°36'0 0.0
2015-Apr-30 17:30N 52°28' E 004°36'0 0.0
2015-Apr-30 16:21N 52°28' E 004°36'0 0.0
2015-Apr-30 15:33N 52°28' E 004°36'0 0.0
2015-Apr-30 14:24N 52°28' E 004°36'0 0.0
2015-Apr-30 13:33N 52°28' E 004°36'0 0.0
2015-Apr-30 12:30N 52°28' E 004°36'1 1.0
2015-Apr-30 11:33N 52°28' E 004°35'9 9.1
2015-Apr-30 10:33N 52°29' E 004°20'6 6.4
2015-Apr-30 09:33N 52°29' E 004°09'6 6.0
2015-Apr-30 08:33N 52°28' E 003°60'5 4.7
2015-Apr-30 07:33N 52°25' E 003°53'5 4.7
2015-Apr-30 06:33N 52°20' E 003°52'5 4.6
2015-Apr-30 05:34N 52°16' E 003°53'5 5.0
2015-Apr-30 04:33N 52°11' E 003°54'5 5.5
2015-Apr-30 03:34N 52°05' E 003°56'7 7.2
2015-Apr-30 02:34N 51°60' E 004°03'1211.7
2015-Apr-30 01:34N 51°54' E 004°19'4 1.8
2015-Apr-29 23:32N 51°55' E 004°25'0 0.0
2015-Apr-29 22:32N 51°55' E 004°25'0 0.0
2015-Apr-29 21:32N 51°55' E 004°25'0 0.0
2015-Apr-29 20:32N 51°55' E 004°25'0 0.0
2015-Apr-29 19:32N 51°55' E 004°25'0 0.0
2015-Apr-29 18:32N 51°55' E 004°25'0 0.0
2015-Apr-29 17:32N 51°55' E 004°25'0 0.0
2015-Apr-29 16:32N 51°55' E 004°25'0 0.0
2015-Apr-29 15:32N 51°55' E 004°25'0 0.0
2015-Apr-29 14:32N 51°55' E 004°25'0 0.0
2015-Apr-29 13:32N 51°55' E 004°25'0 0.0
2015-Apr-29 12:32N 51°55' E 004°25'0 0.0
2015-Apr-29 11:32N 51°55' E 004°25'0 0.0
2015-Apr-29 10:32N 51°55' E 004°25'0 0.0
2015-Apr-29 09:32N 51°55' E 004°25'0 0.0
2015-Apr-29 08:32N 51°55' E 004°25'0 0.0
2015-Apr-29 07:32N 51°55' E 004°25'0 0.0
2015-Apr-29 06:29N 51°55' E 004°25'0 0.0
2015-Apr-29 05:32N 51°55' E 004°25'0 0.0
2015-Apr-29 04:32N 51°55' E 004°25'0 0.0
2015-Apr-29 03:33N 51°55' E 004°25'0 0.0
2015-Apr-29 02:29N 51°55' E 004°25'0 0.0
2015-Apr-29 01:32N 51°55' E 004°25'0 0.0
2015-Apr-29 00:29N 51°55' E 004°25'0 0.2
2015-Apr-28 23:32N 51°54' E 004°25'0 0.0
2015-Apr-28 22:32N 51°54' E 004°25'0 0.0
2015-Apr-28 21:32N 51°54' E 004°25'0 0.0
2015-Apr-28 20:32N 51°54' E 004°25'0 0.0
2015-Apr-28 19:32N 51°54' E 004°25'0 0.0
2015-Apr-28 18:32N 51°54' E 004°25'0 0.0
2015-Apr-28 17:32N 51°54' E 004°25'0 0.0
2015-Apr-28 16:32N 51°54' E 004°25'0 0.0
2015-Apr-28 15:32N 51°54' E 004°25'0 0.0
2015-Apr-28 14:32N 51°54' E 004°25'0 0.0
2015-Apr-28 13:32N 51°54' E 004°25'0 0.0
2015-Apr-28 12:32N 51°54' E 004°25'0 0.0
2015-Apr-28 11:32N 51°54' E 004°25'0 0.0
2015-Apr-28 10:32N 51°54' E 004°25'0 0.0
2015-Apr-28 09:32N 51°54' E 004°25'0 0.0
2015-Apr-28 08:32N 51°54' E 004°25'0 0.0
2015-Apr-28 07:32N 51°54' E 004°25'0 0.0
2015-Apr-28 06:32N 51°54' E 004°25'0 0.0
2015-Apr-28 05:29N 51°54' E 004°25'0 0.0
2015-Apr-28 04:32N 51°54' E 004°25'0 0.0
2015-Apr-28 03:32N 51°54' E 004°25'0 0.0
2015-Apr-28 02:33N 51°54' E 004°25'4 4.1
2015-Apr-28 01:33N 51°54' E 004°18'7 6.9
2015-Apr-28 00:33N 51°58' E 004°09'8 7.7
2015-Apr-27 23:34N 51°60' E 003°57'9 8.8
2015-Apr-27 22:32N 51°59' E 003°43'7 7.1
2015-Apr-27 21:33N 51°56' E 003°32'6 5.8
2015-Apr-27 20:33N 51°55' E 003°23'8 7.9
2015-Apr-27 19:33N 51°52' E 003°10'34 6.7
2015-Apr-27 14:33N 51°35' E 002°23'9 7.5
2015-Apr-27 13:18N 51°28' E 002°14'6 7.7
2015-Apr-27 12:30N 51°22' E 002°10'8 8.1
2015-Apr-27 11:33N 51°15' E 002°06'8 8.1
2015-Apr-27 10:33N 51°10' E 001°55'7 6.9
2015-Apr-27 09:33N 51°06' E 001°47'5 4.8
2015-Apr-27 08:33N 51°02' E 001°42'5 5.4
2015-Apr-27 07:33N 50°58' E 001°36'6 5.9
2015-Apr-27 06:31N 50°53' E 001°30'17 7.2
2015-Apr-27 04:11N 50°39' E 001°18'  
Track history (hours):
 
Tides and Currents Weather Stations Pressure Air Temp Water Temp Dewpoint Dewpoint Depression Visibility Wind Speed Wind Dir Waves Ship Positions

Helas

Last reported at 2015-May-04 11:32 UTC. Time now 2015-May-04 15:04 UTC.
Position N 50°00' W 002°45'.

Length 89 m; draft 5.6 m.

Type: Cargo ship. MMSI: 210031000.

Date/timePositionNaut miles runAvg speedWind from/ knotsBaromVisibWave heightAir tempDewpointWater temp
2015-May-04 11:32N 50°00' W 002°45'10 9.3
2015-May-04 10:30N 50°03' W 002°30'108 8.2
2015-May-03 21:20N 50°34' E 000°13'5 6.4
2015-May-03 20:33N 50°36' E 000°20'6 6.5
2015-May-03 19:33N 50°38' E 000°30'8 7.7
2015-May-03 18:33N 50°41' E 000°40'9 8.9
2015-May-03 17:33N 50°46' E 000°52'12 9.3
2015-May-03 16:16N 50°53' E 001°07'6 8.8
2015-May-03 15:33N 50°57' E 001°15'8 7.8
2015-May-03 14:33N 51°03' E 001°24'7 6.5
2015-May-03 13:33N 51°07' E 001°32'5 5.2
2015-May-03 12:34N 51°10' E 001°38'6 5.6
2015-May-03 11:33N 51°14' E 001°45'7 6.6
2015-May-03 10:33N 51°20' E 001°50'9 8.9
2015-May-03 09:33N 51°27' E 001°57'1110.6
2015-May-03 08:33N 51°35' E 002°09'61 9.5
2015-May-03 02:10N 52°18' E 003°18'5 7.8
2015-May-03 01:33N 52°21' E 003°24'8 8.0
2015-May-03 00:33N 52°25' E 003°35'9 8.9
2015-May-02 23:33N 52°30' E 003°48'10 9.3
2015-May-02 22:31N 52°31' E 004°04'10 9.9
2015-May-02 21:33N 52°30' E 004°19'9 9.4
2015-May-02 20:33N 52°28' E 004°34'1 1.3
2015-May-02 19:33N 52°28' E 004°36'0 0.0
2015-May-02 18:30N 52°28' E 004°36'0 0.0
2015-May-02 17:33N 52°28' E 004°36'0 0.0
2015-May-02 16:33N 52°28' E 004°36'0 0.0
2015-May-02 15:27N 52°28' E 004°36'0 0.0
2015-May-02 14:27N 52°28' E 004°36'0 0.0
2015-May-02 13:27N 52°28' E 004°36'0 0.0
2015-May-02 12:33N 52°28' E 004°36'0 0.0
2015-May-02 11:33N 52°28' E 004°36'0 0.0
2015-May-02 10:33N 52°28' E 004°36'0 0.0
2015-May-02 09:30N 52°28' E 004°36'0 0.0
2015-May-02 08:33N 52°28' E 004°36'0 0.0
2015-May-02 07:33N 52°28' E 004°36'0 0.0
2015-May-02 06:30N 52°28' E 004°36'0 0.0
2015-May-02 05:33N 52°28' E 004°36'0 0.0
2015-May-02 04:30N 52°28' E 004°36'0 0.0
2015-May-02 03:33N 52°28' E 004°36'0 0.0
2015-May-02 02:33N 52°28' E 004°36'0 0.0
2015-May-02 01:33N 52°28' E 004°36'0 0.0
2015-May-02 00:33N 52°28' E 004°36'0 0.0
2015-May-01 23:32N 52°28' E 004°36'0 0.0
2015-May-01 22:32N 52°28' E 004°36'0 0.0
2015-May-01 21:32N 52°28' E 004°36'0 0.0
2015-May-01 20:32N 52°28' E 004°36'0 0.0
2015-May-01 19:32N 52°28' E 004°36'0 0.0
2015-May-01 18:32N 52°28' E 004°36'0 0.0
2015-May-01 17:29N 52°28' E 004°36'0 0.0
2015-May-01 16:32N 52°28' E 004°36'0 0.0
2015-May-01 15:32N 52°28' E 004°36'0 0.0
2015-May-01 14:29N 52°28' E 004°36'0 0.0
2015-May-01 13:29N 52°28' E 004°36'0 0.0
2015-May-01 12:32N 52°28' E 004°36'0 0.0
2015-May-01 11:32N 52°28' E 004°36'0 0.0
2015-May-01 10:32N 52°28' E 004°36'0 0.0
2015-May-01 09:32N 52°28' E 004°36'0 0.0
2015-May-01 08:32N 52°28' E 004°36'0 0.0
2015-May-01 07:32N 52°28' E 004°36'0 0.0
2015-May-01 06:32N 52°28' E 004°36'0 0.0
2015-May-01 05:32N 52°28' E 004°36'0 0.0
2015-May-01 04:32N 52°28' E 004°36'0 0.0
2015-May-01 03:27N 52°28' E 004°36'0 0.0
2015-May-01 02:32N 52°28' E 004°36'0 0.0
2015-May-01 01:33N 52°28' E 004°36'0 0.0
2015-May-01 00:32N 52°28' E 004°36'0 0.0
2015-Apr-30 23:20N 52°28' E 004°36'0 0.0
2015-Apr-30 22:21N 52°28' E 004°36'0 0.0
2015-Apr-30 21:32N 52°28' E 004°36'0 0.0
2015-Apr-30 20:28N 52°28' E 004°36'0 0.0
2015-Apr-30 19:18N 52°28' E 004°36'0 0.0
2015-Apr-30 18:33N 52°28' E 004°36'0 0.0
2015-Apr-30 17:30N 52°28' E 004°36'0 0.0
2015-Apr-30 16:21N 52°28' E 004°36'0 0.0
2015-Apr-30 15:33N 52°28' E 004°36'0 0.0
2015-Apr-30 14:24N 52°28' E 004°36'0 0.0
2015-Apr-30 13:33N 52°28' E 004°36'0 0.0
2015-Apr-30 12:30N 52°28' E 004°36'1 1.0
2015-Apr-30 11:33N 52°28' E 004°35'9 9.1
2015-Apr-30 10:33N 52°29' E 004°20'6 6.4
2015-Apr-30 09:33N 52°29' E 004°09'6 6.0
2015-Apr-30 08:33N 52°28' E 003°60'5 4.7
2015-Apr-30 07:33N 52°25' E 003°53'5 4.7
2015-Apr-30 06:33N 52°20' E 003°52'5 4.6
2015-Apr-30 05:34N 52°16' E 003°53'5 5.0
2015-Apr-30 04:33N 52°11' E 003°54'5 5.5
2015-Apr-30 03:34N 52°05' E 003°56'7 7.2
2015-Apr-30 02:34N 51°60' E 004°03'1211.7
2015-Apr-30 01:34N 51°54' E 004°19'4 1.8
2015-Apr-29 23:32N 51°55' E 004°25'0 0.0
2015-Apr-29 22:32N 51°55' E 004°25'0 0.0
2015-Apr-29 21:32N 51°55' E 004°25'0 0.0
2015-Apr-29 20:32N 51°55' E 004°25'0 0.0
2015-Apr-29 19:32N 51°55' E 004°25'0 0.0
2015-Apr-29 18:32N 51°55' E 004°25'0 0.0
2015-Apr-29 17:32N 51°55' E 004°25'0 0.0
2015-Apr-29 16:32N 51°55' E 004°25'0 0.0
2015-Apr-29 15:32N 51°55' E 004°25'0 0.0
2015-Apr-29 14:32N 51°55' E 004°25'0 0.0
2015-Apr-29 13:32N 51°55' E 004°25'0 0.0
2015-Apr-29 12:32N 51°55' E 004°25'0 0.0
2015-Apr-29 11:32N 51°55' E 004°25'0 0.0
2015-Apr-29 10:32N 51°55' E 004°25'0 0.0
2015-Apr-29 09:32N 51°55' E 004°25'0 0.0
2015-Apr-29 08:32N 51°55' E 004°25'0 0.0
2015-Apr-29 07:32N 51°55' E 004°25'0 0.0
2015-Apr-29 06:29N 51°55' E 004°25'0 0.0
2015-Apr-29 05:32N 51°55' E 004°25'0 0.0
2015-Apr-29 04:32N 51°55' E 004°25'0 0.0
2015-Apr-29 03:33N 51°55' E 004°25'0 0.0
2015-Apr-29 02:29N 51°55' E 004°25'0 0.0
2015-Apr-29 01:32N 51°55' E 004°25'0 0.0
2015-Apr-29 00:29N 51°55' E 004°25'0 0.2
2015-Apr-28 23:32N 51°54' E 004°25'0 0.0
2015-Apr-28 22:32N 51°54' E 004°25'0 0.0
2015-Apr-28 21:32N 51°54' E 004°25'0 0.0
2015-Apr-28 20:32N 51°54' E 004°25'0 0.0
2015-Apr-28 19:32N 51°54' E 004°25'0 0.0
2015-Apr-28 18:32N 51°54' E 004°25'0 0.0
2015-Apr-28 17:32N 51°54' E 004°25'0 0.0
2015-Apr-28 16:32N 51°54' E 004°25'0 0.0
2015-Apr-28 15:32N 51°54' E 004°25'0 0.0
2015-Apr-28 14:32N 51°54' E 004°25'0 0.0
2015-Apr-28 13:32N 51°54' E 004°25'0 0.0
2015-Apr-28 12:32N 51°54' E 004°25'0 0.0
2015-Apr-28 11:32N 51°54' E 004°25'0 0.0
2015-Apr-28 10:32N 51°54' E 004°25'0 0.0
2015-Apr-28 09:32N 51°54' E 004°25'0 0.0
2015-Apr-28 08:32N 51°54' E 004°25'0 0.0
2015-Apr-28 07:32N 51°54' E 004°25'0 0.0
2015-Apr-28 06:32N 51°54' E 004°25'0 0.0
2015-Apr-28 05:29N 51°54' E 004°25'0 0.0
2015-Apr-28 04:32N 51°54' E 004°25'0 0.0
2015-Apr-28 03:32N 51°54' E 004°25'0 0.0
2015-Apr-28 02:33N 51°54' E 004°25'4 4.1
2015-Apr-28 01:33N 51°54' E 004°18'7 6.9
2015-Apr-28 00:33N 51°58' E 004°09'8 7.7
2015-Apr-27 23:34N 51°60' E 003°57'9 8.8
2015-Apr-27 22:32N 51°59' E 003°43'7 7.1
2015-Apr-27 21:33N 51°56' E 003°32'6 5.8
2015-Apr-27 20:33N 51°55' E 003°23'8 7.9
2015-Apr-27 19:33N 51°52' E 003°10'34 6.7
2015-Apr-27 14:33N 51°35' E 002°23'9 7.5
2015-Apr-27 13:18N 51°28' E 002°14'6 7.7
2015-Apr-27 12:30N 51°22' E 002°10'8 8.1
2015-Apr-27 11:33N 51°15' E 002°06'8 8.1
2015-Apr-27 10:33N 51°10' E 001°55'7 6.9
2015-Apr-27 09:33N 51°06' E 001°47'5 4.8
2015-Apr-27 08:33N 51°02' E 001°42'5 5.4
2015-Apr-27 07:33N 50°58' E 001°36'6 5.9
2015-Apr-27 06:31N 50°53' E 001°30'17 7.2
2015-Apr-27 04:11N 50°39' E 001°18'  

Dump ship's entire track history